Bloomingdale, Wisconsin
Current Conditions -  °F | °C
As of 1:15 AM on Sunday 23 Nov 2014 (Local Time) from KY51 Reporting Station
Overcast Overcast  
Wind Chill: 45°   Ceiling: 700
Heat Index: 49°   Visibility: 7mi
Dew Point: 49°   Wind: 12mph
Humidity: 100%   Direction: 190°S
Pressure: 29.62"   Gusts: NA
Location:  43.6744°N, 90.8807°W
Report Text: KY51 230715Z AUTO 19010KT 7SM OVC007 10/10 A2962 RMK AO1 T00960096
Loading
Personal Weather Stations






























Interactive Weather Map New forecast layout! Learn more

10-Day Weather Forecast

Advertisements
Track Severe Weather on mobile